createdAt,value
2023-04-23T00:01:42.566Z,14.48
2023-04-23T00:04:09.793Z,17.83
2023-04-23T00:06:36.807Z,14.25
2023-04-23T00:09:04.048Z,13.70
2023-04-23T00:11:30.788Z,12.35
2023-04-23T00:13:57.398Z,13.02
2023-04-23T00:16:24.777Z,20.13
2023-04-23T00:18:51.378Z,17.17
2023-04-23T00:21:17.971Z,15.13
2023-04-23T00:23:44.361Z,13.95
2023-04-23T00:26:10.820Z,13.25
2023-04-23T00:28:37.222Z,14.65
2023-04-23T00:31:03.825Z,13.73
2023-04-23T00:33:30.545Z,14.80
2023-04-23T00:35:56.973Z,11.27
2023-04-23T00:38:23.360Z,15.20
2023-04-23T00:40:49.964Z,16.35
2023-04-23T00:43:17.588Z,15.32
2023-04-23T00:45:44.336Z,10.45
2023-04-23T00:48:12.314Z,10.73
2023-04-23T00:50:38.713Z,12.43
2023-04-23T00:53:05.649Z,13.70
2023-04-23T00:55:32.940Z,15.00
2023-04-23T00:58:00.737Z,14.90
2023-04-23T01:00:27.629Z,14.70
2023-04-23T01:02:54.679Z,15.70
2023-04-23T01:05:23.386Z,13.52
2023-04-23T01:07:49.925Z,12.88
2023-04-23T01:10:17.357Z,12.15
2023-04-23T01:12:43.774Z,12.70
2023-04-23T01:15:10.599Z,15.27
2023-04-23T01:17:37.186Z,12.07
2023-04-23T01:20:06.224Z,13.45
2023-04-23T01:22:37.625Z,15.52
2023-04-23T01:25:04.537Z,16.38
2023-04-23T01:27:31.825Z,15.23
2023-04-23T01:29:58.777Z,13.27
2023-04-23T01:32:25.639Z,17.75
2023-04-23T01:34:53.980Z,20.05
2023-04-23T01:37:21.084Z,14.13
2023-04-23T01:39:47.483Z,14.57
2023-04-23T01:42:13.962Z,15.10
2023-04-23T01:44:40.937Z,16.48
2023-04-23T01:47:07.634Z,17.10
2023-04-23T01:49:34.330Z,15.30
2023-04-23T01:52:00.797Z,13.90
2023-04-23T01:54:27.287Z,17.10
2023-04-23T01:56:54.861Z,19.38
2023-04-23T01:59:22.765Z,15.85
2023-04-23T02:01:50.374Z,16.55
2023-04-23T02:04:17.982Z,14.45
2023-04-23T02:06:47.420Z,15.40
2023-04-23T02:09:13.944Z,17.85
2023-04-23T02:11:40.382Z,14.10
2023-04-23T02:14:07.468Z,14.27
2023-04-23T02:16:34.587Z,14.13
2023-04-23T02:19:01.848Z,18.00
2023-04-23T02:21:28.533Z,14.73
2023-04-23T02:23:55.302Z,14.32
2023-04-23T02:26:22.784Z,17.83
2023-04-23T02:28:49.399Z,14.35
2023-04-23T02:31:16.539Z,14.85
2023-04-23T02:33:43.295Z,20.88
2023-04-23T02:36:11.608Z,18.15
2023-04-23T02:38:41.374Z,12.27
2023-04-23T02:41:08.224Z,15.23
2023-04-23T02:43:34.769Z,14.65
2023-04-23T02:46:07.871Z,16.38
2023-04-23T02:48:41.541Z,14.13
2023-04-23T02:51:10.714Z,12.95
2023-04-23T02:53:37.229Z,16.42
2023-04-23T02:56:03.907Z,15.00
2023-04-23T02:58:31.000Z,14.00
2023-04-23T03:00:57.908Z,17.60
2023-04-23T03:03:31.624Z,20.88
2023-04-23T03:06:00.165Z,17.58
2023-04-23T03:08:27.358Z,14.50
2023-04-23T03:10:53.843Z,13.90
2023-04-23T03:13:20.213Z,16.48
2023-04-23T03:15:46.612Z,15.23
2023-04-23T03:18:13.067Z,13.88
2023-04-23T03:20:39.475Z,12.85
2023-04-23T03:23:06.392Z,13.18
2023-04-23T03:25:33.818Z,13.85
2023-04-23T03:28:00.501Z,13.32
2023-04-23T03:30:28.051Z,11.27
2023-04-23T03:32:58.074Z,13.02
2023-04-23T03:35:26.310Z,13.60
2023-04-23T03:37:52.747Z,10.80
2023-04-23T03:40:20.203Z,9.60
2023-04-23T03:42:46.941Z,9.40
2023-04-23T03:45:14.493Z,10.85
2023-04-23T03:47:40.964Z,13.18
2023-04-23T03:50:09.080Z,10.52
2023-04-23T03:52:35.888Z,10.68
2023-04-23T03:55:02.774Z,12.85
2023-04-23T03:57:29.347Z,13.10
2023-04-23T03:59:55.755Z,11.85
2023-04-23T04:02:22.983Z,12.45
2023-04-23T04:04:51.754Z,9.15
2023-04-23T04:07:18.423Z,11.00
2023-04-23T04:09:47.061Z,8.70
2023-04-23T04:12:13.468Z,9.82
2023-04-23T04:14:40.040Z,12.50
2023-04-23T04:17:06.664Z,10.18
2023-04-23T04:19:33.076Z,15.75
2023-04-23T04:21:59.993Z,9.80
2023-04-23T04:24:27.333Z,12.98
2023-04-23T04:26:53.929Z,14.25
2023-04-23T04:29:21.346Z,13.57
2023-04-23T04:31:48.797Z,11.48
2023-04-23T04:34:15.576Z,10.07
2023-04-23T04:36:42.346Z,10.60
2023-04-23T04:39:08.987Z,13.60
2023-04-23T04:41:37.046Z,11.23
2023-04-23T04:44:03.436Z,8.85
2023-04-23T04:46:31.830Z,14.20
2023-04-23T04:48:58.291Z,10.77
2023-04-23T04:51:24.705Z,10.40
2023-04-23T04:53:51.198Z,8.55
2023-04-23T04:56:17.672Z,6.15
2023-04-23T04:58:44.087Z,9.10
2023-04-23T05:01:10.760Z,10.25
2023-04-23T05:03:37.562Z,8.50
2023-04-23T05:06:04.436Z,13.52
2023-04-23T05:08:30.955Z,8.40
2023-04-23T05:10:57.347Z,13.55
2023-04-23T05:13:23.756Z,8.48
2023-04-23T05:15:50.317Z,8.60
2023-04-23T05:18:16.700Z,10.57
2023-04-23T05:20:43.228Z,8.85
2023-04-23T05:23:09.875Z,11.82
2023-04-23T05:25:36.298Z,9.05
2023-04-23T05:28:02.687Z,8.45
2023-04-23T05:30:29.365Z,6.55
2023-04-23T05:32:56.009Z,8.13
2023-04-23T05:35:22.509Z,11.73
2023-04-23T05:37:48.966Z,9.18
2023-04-23T05:40:15.382Z,9.60
2023-04-23T05:42:41.818Z,9.25
2023-04-23T05:45:09.317Z,10.15
2023-04-23T05:47:36.268Z,7.82
2023-04-23T05:50:02.969Z,15.73
2023-04-23T05:52:33.304Z,9.82
2023-04-23T05:54:59.734Z,13.18
2023-04-23T05:57:26.488Z,8.57
2023-04-23T05:59:52.915Z,11.10
2023-04-23T06:02:20.388Z,11.18
2023-04-23T06:04:48.355Z,8.45
2023-04-23T06:07:15.426Z,10.05
2023-04-23T06:09:41.797Z,9.43
2023-04-23T06:12:11.290Z,11.57
2023-04-23T06:14:37.805Z,8.43
2023-04-23T06:17:04.203Z,8.35
2023-04-23T06:19:30.598Z,9.15
2023-04-23T06:21:57.095Z,9.45
2023-04-23T06:24:23.546Z,8.48
2023-04-23T06:26:50.171Z,12.13
2023-04-23T06:29:16.645Z,10.10
2023-04-23T06:31:43.252Z,11.90
2023-04-23T06:34:09.752Z,10.00
2023-04-23T06:36:36.197Z,12.05
2023-04-23T06:39:02.602Z,9.95
2023-04-23T06:41:29.039Z,12.88
2023-04-23T06:43:55.903Z,11.52
2023-04-23T06:46:22.392Z,10.57
2023-04-23T06:48:48.818Z,8.25
2023-04-23T06:51:16.012Z,12.13
2023-04-23T06:53:42.667Z,10.00
2023-04-23T06:56:09.074Z,10.93
2023-04-23T06:58:35.497Z,10.82
2023-04-23T07:01:05.025Z,12.23
2023-04-23T07:03:31.712Z,8.10
2023-04-23T07:05:58.220Z,12.15
2023-04-23T07:08:24.647Z,13.60
2023-04-23T07:10:51.708Z,11.88
2023-04-23T07:13:18.122Z,9.43
2023-04-23T07:15:44.525Z,11.38
2023-04-23T07:18:11.179Z,11.38
2023-04-23T07:20:38.325Z,10.50
2023-04-23T07:23:05.000Z,12.05
2023-04-23T07:25:32.055Z,8.02
2023-04-23T07:27:58.729Z,8.75
2023-04-23T07:30:27.063Z,9.23
2023-04-23T07:32:54.179Z,9.35
2023-04-23T07:35:20.940Z,8.77
2023-04-23T07:37:47.405Z,12.02
2023-04-23T07:40:13.893Z,9.82
2023-04-23T07:42:40.396Z,10.25
2023-04-23T07:45:07.219Z,9.23
2023-04-23T07:47:33.683Z,8.30
2023-04-23T07:50:00.275Z,8.77
2023-04-23T07:52:26.768Z,6.72
2023-04-23T07:54:53.158Z,7.60
2023-04-23T07:57:19.640Z,9.18
2023-04-23T07:59:46.033Z,7.60
2023-04-23T08:02:12.567Z,4.57
2023-04-23T08:04:39.288Z,4.60
2023-04-23T08:07:05.797Z,6.05
2023-04-23T08:09:32.241Z,6.35
2023-04-23T08:11:58.861Z,9.38
2023-04-23T08:14:25.320Z,6.38
2023-04-23T08:16:51.739Z,4.97
2023-04-23T08:19:18.193Z,7.80
2023-04-23T08:21:44.684Z,5.65
2023-04-23T08:24:11.069Z,6.40
2023-04-23T08:26:37.523Z,7.28
2023-04-23T08:29:05.184Z,5.57
2023-04-23T08:31:31.775Z,6.07
2023-04-23T08:33:58.428Z,6.10
2023-04-23T08:36:26.647Z,8.38
2023-04-23T08:38:53.092Z,5.70
2023-04-23T08:41:23.411Z,5.07
2023-04-23T08:43:52.290Z,6.18
2023-04-23T08:46:19.711Z,7.80
2023-04-23T08:48:47.963Z,6.63
2023-04-23T08:51:19.361Z,6.82
2023-04-23T08:53:52.429Z,6.43
2023-04-23T08:56:19.844Z,9.23
2023-04-23T08:58:47.052Z,6.82
2023-04-23T09:01:14.313Z,7.03
2023-04-23T09:03:42.400Z,6.88
2023-04-23T09:06:09.592Z,7.03
2023-04-23T09:08:36.772Z,7.47
2023-04-23T09:11:05.104Z,6.93
2023-04-23T09:13:34.774Z,7.60
2023-04-23T09:16:01.259Z,8.13
2023-04-23T09:18:27.864Z,7.32
2023-04-23T09:20:54.603Z,7.13
2023-04-23T09:23:23.243Z,11.00
2023-04-23T09:25:49.698Z,7.65
2023-04-23T09:28:16.220Z,8.55
2023-04-23T09:30:46.507Z,9.75
2023-04-23T09:33:13.329Z,7.25
2023-04-23T09:35:42.061Z,9.02
2023-04-23T09:38:10.469Z,7.88
2023-04-23T09:40:37.908Z,6.05
2023-04-23T09:43:06.898Z,6.90
2023-04-23T09:45:35.212Z,8.25
2023-04-23T09:48:02.301Z,9.05
2023-04-23T09:50:39.533Z,8.82
2023-04-23T09:53:08.162Z,8.98
2023-04-23T09:55:39.489Z,9.43
2023-04-23T09:58:11.014Z,8.98
2023-04-23T10:00:39.049Z,11.32
2023-04-23T10:03:07.858Z,10.07
2023-04-23T10:05:56.231Z,11.63
2023-04-23T10:08:27.753Z,10.45
2023-04-23T10:11:06.026Z,10.98
2023-04-23T10:13:37.268Z,10.82
2023-04-23T10:16:18.207Z,10.90
2023-04-23T10:18:51.029Z,10.52
2023-04-23T10:21:17.973Z,12.45
2023-04-23T10:23:47.193Z,11.93
2023-04-23T10:26:16.613Z,13.40
2023-04-23T10:28:48.027Z,13.40
2023-04-23T10:31:15.648Z,12.60
2023-04-23T10:33:56.128Z,11.73
2023-04-23T10:36:29.069Z,12.15
2023-04-23T10:39:00.363Z,10.27
2023-04-23T10:41:36.897Z,12.73
2023-04-23T10:44:07.200Z,8.75
2023-04-23T10:46:36.453Z,10.00
2023-04-23T10:49:14.673Z,9.90
2023-04-23T10:54:19.106Z,10.05
2023-04-23T10:56:45.606Z,9.23
2023-04-23T10:59:22.684Z,10.50
2023-04-23T11:01:52.648Z,9.85
2023-04-23T11:04:32.097Z,10.07
2023-04-23T11:07:06.059Z,12.63
2023-04-23T11:09:54.120Z,11.95
2023-04-23T11:12:20.521Z,10.40
2023-04-23T11:14:51.571Z,10.98
2023-04-23T11:17:32.977Z,9.77
2023-04-23T11:20:14.920Z,11.82
2023-04-23T11:22:45.184Z,12.65
2023-04-23T11:25:13.729Z,10.90
2023-04-23T11:27:42.269Z,12.30
2023-04-23T11:30:13.533Z,10.75
2023-04-23T11:32:41.977Z,10.30
2023-04-23T11:35:11.427Z,10.93
2023-04-23T11:37:43.398Z,9.18
2023-04-23T11:40:19.016Z,10.13
2023-04-23T11:42:55.029Z,8.80
2023-04-23T11:45:27.118Z,11.23
2023-04-23T11:50:33.350Z,9.52
2023-04-23T11:53:08.825Z,9.27
2023-04-23T11:55:35.373Z,10.23
2023-04-23T11:58:03.130Z,9.48
2023-04-23T12:00:29.988Z,9.05
2023-04-23T12:03:04.592Z,8.48
2023-04-23T12:05:39.288Z,7.35
2023-04-23T12:08:17.128Z,8.32
2023-04-23T12:10:59.114Z,10.50
2023-04-23T12:13:30.504Z,9.52
2023-04-23T12:15:59.761Z,8.15
2023-04-23T12:18:35.637Z,9.13
2023-04-23T12:21:08.805Z,11.73
2023-04-23T12:23:37.744Z,6.82
2023-04-23T12:26:04.554Z,7.18
2023-04-23T12:28:31.340Z,7.55
2023-04-23T12:31:02.498Z,6.63
2023-04-23T12:33:30.540Z,10.80
2023-04-23T12:35:57.893Z,7.68
2023-04-23T12:38:26.614Z,7.32
2023-04-23T12:40:58.556Z,6.95
2023-04-23T12:43:26.208Z,5.03
2023-04-23T12:45:54.294Z,6.45
2023-04-23T12:48:20.928Z,7.50
2023-04-23T12:50:48.618Z,4.15
2023-04-23T12:53:15.481Z,6.82
2023-04-23T12:55:44.196Z,4.35
2023-04-23T12:58:10.823Z,6.72
2023-04-23T13:00:37.292Z,4.65
2023-04-23T13:03:04.126Z,6.13
2023-04-23T13:05:30.817Z,5.60
2023-04-23T13:07:57.296Z,4.75
2023-04-23T13:10:23.837Z,8.35
2023-04-23T13:12:51.557Z,5.47
2023-04-23T13:15:20.097Z,6.57
2023-04-23T13:17:46.864Z,5.60
2023-04-23T13:20:13.370Z,7.35
2023-04-23T13:22:39.968Z,5.32
2023-04-23T13:25:06.870Z,6.38
2023-04-23T13:27:33.292Z,5.10
2023-04-23T13:29:59.981Z,5.93
2023-04-23T13:32:32.478Z,6.57
2023-04-23T13:35:04.782Z,6.15
2023-04-23T13:37:31.739Z,5.65
2023-04-23T13:39:58.173Z,9.27
2023-04-23T13:42:26.026Z,7.40
2023-04-23T13:44:52.710Z,6.57
2023-04-23T13:47:19.307Z,6.93
2023-04-23T13:49:45.815Z,4.93
2023-04-23T13:52:12.550Z,5.53
2023-04-23T13:54:39.769Z,6.88
2023-04-23T13:57:06.652Z,3.42
2023-04-23T13:59:33.209Z,5.35
2023-04-23T14:01:59.603Z,5.70
2023-04-23T14:04:27.139Z,4.10
2023-04-23T14:06:53.669Z,4.20
2023-04-23T14:09:22.097Z,7.05
2023-04-23T14:11:48.952Z,4.60
2023-04-23T14:14:16.464Z,5.10
2023-04-23T14:16:43.019Z,5.10
2023-04-23T14:19:09.509Z,4.22
2023-04-23T14:21:36.237Z,4.97
2023-04-23T14:24:10.245Z,4.45
2023-04-23T14:29:17.819Z,6.55
2023-04-23T14:31:44.352Z,4.13
2023-04-23T14:34:11.756Z,4.20
2023-04-23T14:36:38.252Z,5.20
2023-04-23T14:39:05.409Z,3.88
2023-04-23T14:41:32.916Z,3.83
2023-04-23T14:44:01.225Z,4.03
2023-04-23T14:46:28.586Z,5.40
2023-04-23T14:48:55.434Z,4.43
2023-04-23T14:51:22.394Z,4.07
2023-04-23T14:53:49.050Z,4.57
2023-04-23T14:56:16.874Z,6.53
2023-04-23T14:58:43.422Z,4.20
2023-04-23T15:01:09.903Z,2.85
2023-04-23T15:03:36.877Z,2.80
2023-04-23T15:06:06.508Z,4.68
2023-04-23T15:08:33.362Z,3.35
2023-04-23T15:11:00.189Z,2.92
2023-04-23T15:13:49.324Z,4.35
2023-04-23T15:16:47.688Z,3.65
2023-04-23T15:19:17.776Z,3.88
2023-04-23T15:21:44.673Z,3.15
2023-04-23T15:24:11.290Z,6.03
2023-04-23T15:26:38.124Z,3.90
2023-04-23T15:29:09.535Z,3.85
2023-04-23T15:31:37.452Z,3.75
2023-04-23T15:34:06.117Z,1.73
2023-04-23T15:36:33.263Z,3.42
2023-04-23T15:38:59.708Z,2.40
2023-04-23T15:41:26.971Z,3.78
2023-04-23T15:43:55.007Z,1.80
2023-04-23T15:46:21.591Z,4.50
2023-04-23T15:48:48.018Z,2.00
2023-04-23T15:51:16.082Z,3.47
2023-04-23T15:53:42.634Z,2.08
2023-04-23T15:56:09.139Z,7.03
2023-04-23T15:58:36.041Z,3.40
2023-04-23T16:01:03.205Z,1.90
2023-04-23T16:03:30.154Z,2.58
2023-04-23T16:05:56.831Z,3.17
2023-04-23T16:08:23.291Z,2.28
2023-04-23T16:10:49.855Z,1.83
2023-04-23T16:13:16.380Z,2.05
2023-04-23T16:15:43.032Z,2.95
2023-04-23T16:18:09.641Z,2.65
2023-04-23T16:20:36.219Z,2.42
2023-04-23T16:23:02.728Z,3.33
2023-04-23T16:25:29.664Z,3.20
2023-04-23T16:27:56.397Z,2.58
2023-04-23T16:30:23.499Z,2.65
2023-04-23T16:32:50.644Z,2.67
2023-04-23T16:35:17.242Z,4.00
2023-04-23T16:37:43.868Z,2.95
2023-04-23T16:40:15.131Z,3.55
2023-04-23T16:42:44.084Z,2.90
2023-04-23T16:45:11.326Z,2.97
2023-04-23T16:47:37.854Z,4.20
2023-04-23T16:50:04.626Z,3.65
2023-04-23T16:52:31.173Z,2.55
2023-04-23T16:54:57.803Z,3.28
2023-04-23T16:57:25.436Z,4.15
2023-04-23T16:59:52.680Z,4.43
2023-04-23T17:02:20.074Z,3.17
2023-04-23T17:04:47.248Z,3.50
2023-04-23T17:07:14.404Z,3.50
2023-04-23T17:09:40.885Z,3.25
2023-04-23T17:12:07.363Z,4.50
2023-04-23T17:14:34.003Z,4.15
2023-04-23T17:17:00.813Z,2.50
2023-04-23T17:19:27.316Z,3.10
2023-04-23T17:21:53.770Z,3.35
2023-04-23T17:24:20.432Z,4.40
2023-04-23T17:26:48.006Z,3.00
2023-04-23T17:29:15.026Z,4.28
2023-04-23T17:31:41.717Z,4.20
2023-04-23T17:34:08.154Z,4.13
2023-04-23T17:36:34.657Z,4.80
2023-04-23T17:39:01.260Z,4.53
2023-04-23T17:41:27.760Z,3.25
2023-04-23T17:43:54.281Z,7.03
2023-04-23T17:46:21.199Z,3.67
2023-04-23T17:48:48.315Z,4.15
2023-04-23T17:51:14.896Z,4.78
2023-04-23T17:53:48.376Z,4.93
2023-04-23T17:56:15.732Z,4.00
2023-04-23T17:58:42.282Z,5.13
2023-04-23T18:01:09.759Z,8.05
2023-04-23T18:03:36.860Z,4.85
2023-04-23T18:06:03.700Z,4.78
2023-04-23T18:08:30.385Z,4.45
2023-04-23T18:10:56.977Z,7.35
2023-04-23T18:13:23.649Z,4.88
2023-04-23T18:15:50.428Z,4.45
2023-04-23T18:18:18.040Z,4.45
2023-04-23T18:20:46.110Z,5.32
2023-04-23T18:23:14.053Z,4.97
2023-04-23T18:25:41.755Z,5.50
2023-04-23T18:28:08.264Z,4.97
2023-04-23T18:30:36.816Z,5.43
2023-04-23T18:33:08.745Z,4.75
2023-04-23T18:35:35.408Z,4.82
2023-04-23T18:38:09.956Z,4.15
2023-04-23T18:40:36.430Z,7.38
2023-04-23T18:43:02.908Z,4.93
2023-04-23T18:45:29.428Z,4.68
2023-04-23T18:48:17.219Z,3.70
2023-04-23T18:50:48.115Z,5.60
2023-04-23T18:53:14.612Z,7.03
2023-04-23T18:55:41.091Z,4.72
2023-04-23T18:58:07.707Z,5.47
2023-04-23T19:00:34.466Z,4.30
2023-04-23T19:03:06.395Z,4.72
2023-04-23T19:05:35.912Z,3.78
2023-04-23T19:08:03.270Z,4.72
2023-04-23T19:10:30.067Z,4.22
2023-04-23T19:12:56.951Z,5.72
2023-04-23T19:15:23.386Z,4.82
2023-04-23T19:17:49.912Z,6.25
2023-04-23T19:20:18.563Z,4.72
2023-04-23T19:22:45.353Z,3.53
2023-04-23T19:25:12.281Z,3.80
2023-04-23T19:27:38.802Z,5.05
2023-04-23T19:30:07.323Z,5.53
2023-04-23T19:32:33.854Z,4.25
2023-04-23T19:35:00.478Z,4.07
2023-04-23T19:37:27.172Z,4.05
2023-04-23T19:39:53.602Z,4.15
2023-04-23T19:42:20.170Z,5.15
2023-04-23T19:44:49.538Z,5.78
2023-04-23T19:47:17.024Z,3.80
2023-04-23T19:49:45.088Z,5.43
2023-04-23T19:52:17.588Z,7.57
2023-04-23T19:54:48.817Z,5.55
2023-04-23T19:57:19.714Z,4.88
2023-04-23T19:59:46.434Z,4.40
2023-04-23T20:02:13.359Z,5.38
2023-04-23T20:04:39.904Z,4.43
2023-04-23T20:07:06.882Z,4.35
2023-04-23T20:09:33.869Z,4.03
2023-04-23T20:12:01.601Z,4.97
2023-04-23T20:14:28.868Z,5.57
2023-04-23T20:16:55.953Z,4.20
2023-04-23T20:19:25.605Z,4.60
2023-04-23T20:21:52.896Z,3.83
2023-04-23T20:24:21.489Z,4.22
2023-04-23T20:26:48.646Z,4.22
2023-04-23T20:29:15.278Z,4.97
2023-04-23T20:31:42.206Z,3.25
2023-04-23T20:34:08.721Z,3.72
2023-04-23T20:36:38.585Z,3.45
2023-04-23T20:39:05.249Z,3.22
2023-04-23T20:41:36.997Z,3.35
2023-04-23T20:44:05.090Z,4.78
2023-04-23T20:46:32.508Z,5.97
2023-04-23T20:49:00.809Z,5.40
2023-04-23T20:51:33.143Z,4.55
2023-04-23T20:53:59.777Z,7.45
2023-04-23T20:56:26.259Z,3.08
2023-04-23T20:58:52.751Z,5.20
2023-04-23T21:01:19.707Z,3.45
2023-04-23T21:03:46.299Z,3.30
2023-04-23T21:06:12.952Z,3.75
2023-04-23T21:08:41.276Z,4.45
2023-04-23T21:11:11.220Z,3.40
2023-04-23T21:13:38.141Z,4.15
2023-04-23T21:16:04.886Z,4.53
2023-04-23T21:18:31.405Z,3.38
2023-04-23T21:20:58.086Z,4.95
2023-04-23T21:23:24.625Z,4.90
2023-04-23T21:25:51.655Z,4.35
2023-04-23T21:28:18.668Z,5.32
2023-04-23T21:30:53.654Z,2.95
2023-04-23T21:33:22.148Z,4.03
2023-04-23T21:35:52.555Z,6.53
2023-04-23T21:38:20.051Z,6.25
2023-04-23T21:40:46.843Z,3.88
2023-04-23T21:43:14.009Z,12.07
2023-04-23T21:45:40.508Z,3.65
2023-04-23T21:48:07.047Z,4.70
2023-04-23T21:50:33.738Z,3.35
2023-04-23T21:53:00.378Z,3.42
2023-04-23T21:55:28.221Z,4.35
2023-04-23T21:58:00.400Z,3.88
2023-04-23T22:00:33.165Z,3.60
2023-04-23T22:02:59.860Z,5.18
2023-04-23T22:05:28.357Z,6.03
2023-04-23T22:07:55.680Z,3.85
2023-04-23T22:10:22.933Z,4.68
2023-04-23T22:12:49.995Z,3.25
2023-04-23T22:15:18.485Z,4.75
2023-04-23T22:17:48.287Z,3.13
2023-04-23T22:20:15.853Z,3.05
2023-04-23T22:22:42.786Z,4.95
2023-04-23T22:25:10.858Z,3.50
2023-04-23T22:27:38.811Z,4.32
2023-04-23T22:30:07.882Z,3.55
2023-04-23T22:32:35.784Z,4.82
2023-04-23T22:35:03.254Z,4.30
2023-04-23T22:37:31.274Z,3.42
2023-04-23T22:39:58.026Z,7.03
2023-04-23T22:42:24.451Z,5.80
2023-04-23T22:44:50.943Z,4.97
2023-04-23T22:47:17.727Z,6.90
2023-04-23T22:49:44.433Z,7.22
2023-04-23T22:52:17.127Z,3.58
2023-04-23T22:54:43.745Z,4.70
2023-04-23T22:57:11.379Z,3.78
2023-04-23T22:59:39.502Z,8.02
2023-04-23T23:02:06.878Z,6.53
2023-04-23T23:04:37.414Z,8.30
2023-04-23T23:07:05.659Z,5.30
2023-04-23T23:09:32.430Z,4.13
2023-04-23T23:12:03.496Z,7.38
2023-04-23T23:14:32.350Z,4.30
2023-04-23T23:16:59.009Z,4.78
2023-04-23T23:19:27.119Z,4.68
2023-04-23T23:21:53.882Z,4.15
2023-04-23T23:24:21.554Z,10.05
2023-04-23T23:26:48.004Z,4.93
2023-04-23T23:29:14.408Z,3.50
2023-04-23T23:31:41.146Z,5.25
2023-04-23T23:34:08.604Z,3.95
2023-04-23T23:36:35.067Z,4.85
2023-04-23T23:39:01.802Z,4.47
2023-04-23T23:41:28.289Z,4.07
2023-04-23T23:43:54.792Z,4.68
2023-04-23T23:46:21.400Z,5.20
2023-04-23T23:48:48.084Z,6.57
2023-04-23T23:51:14.553Z,4.93
2023-04-23T23:53:40.946Z,4.88
2023-04-23T23:56:07.419Z,4.72
2023-04-23T23:58:33.855Z,5.60
